Lawton Fort Sill Regional Airport Lawton US
ICAO: KLAW
IATA: LAW
Category: Medium
Scheduled Services: No

Elevation: 1110 ft
TransAlt. 18000 ft.

Airport Communications:
FORT SILL APP/DEP:120.55
ATIS:120.75
CTAF:119.9
GND:121.9
TWR:119.9
UNICOM:122.95

KLAW Zoom In..

If you have problems with the map follow the link
https://www.worldairports.se/pages/airport.php?
ICAO=KLAW

Runways:

(A) RW 17 length 8599 ft width 150 ft
---- / hdg 171

(B) RW 35 length 8599 ft width 150 ft
ILS 109.10 / hdg 351

Location; KLAW
Day. 18 / Time. 22.53 Zulu
* Altimeter: 29.54
* Temperature: 18° c. 64.4°f.
* Wind from: 150° Speed 07 kn.
Dewpoint: 10° c.
Visibility: 10 Statute Miles.
Clouds: Few 1000 ft.
Clouds: Scattered 11000 ft.

KLAW 182253Z 15007KT 10SM FEW100 SCT110 18/10 A2954 RMK AO2 SLP002 T01830100


Wind From 150°
Speed 07 kn.

 
 
jpsmedia.com for Web Design worldairports.se 2019   terms of use